Time;durP1;ratioP1;P1;durP2;ratioP2;P2;SDS_P1;SDS_P2;PMS_P1;PMS_P2;Temp;Humidity;BMP_temperature;BMP_pressure;BME280_temperature;BME280_humidity;BME280_pressure;Samples;Min_cycle;Max_cycle;Signal;HPM_P1;HPM_P2
2023/09/27 00:00:40;;;;;;;11.63;7.45;;;;;;;;;;4982767;28;25047;-71
2023/09/27 00:03:06;;;;;;;12.73;7.53;;;;;;;;;;4990307;28;25142;-72
2023/09/27 00:05:33;;;;;;;10.23;8.50;;;;;;;;;;4965791;28;25104;-72
2023/09/27 00:07:59;;;;;;;12.18;8.98;;;;;;;;;;4991600;28;25070;-73
2023/09/27 00:10:27;;;;;;;12.27;7.75;;;;;;;;;;5000896;28;25056;-73
2023/09/27 00:12:53;;;;;;;10.13;7.38;;;;;;;;;;4993671;28;25067;-71
2023/09/27 00:15:19;;;;;;;10.60;8.15;;;;;;;;;;4992610;28;25068;-74
2023/09/27 00:17:46;;;;;;;12.18;7.82;;;;;;;;;;4993396;28;25161;-73
2023/09/27 00:20:15;;;;;;;9.80;7.10;;;;;;;;;;4992463;28;25078;-72
2023/09/27 00:22:42;;;;;;;9.20;7.07;;;;;;;;;;4981127;28;25058;-70
2023/09/27 00:25:08;;;;;;;11.45;7.45;;;;;;;;;;4987050;28;25137;-73
2023/09/27 00:27:35;;;;;;;10.13;7.88;;;;;;;;;;4996974;28;25081;-76
2023/09/27 00:30:01;;;;;;;10.73;7.95;;;;;;;;;;4988596;28;25103;-72
2023/09/27 00:32:28;;;;;;;9.93;7.32;;;;;;;;;;4991268;28;25056;-72
2023/09/27 00:34:54;;;;;;;11.23;7.93;;;;;;;;;;4970832;28;25105;-73
2023/09/27 00:37:20;;;;;;;10.88;8.00;;;;;;;;;;4963887;28;25048;-72
2023/09/27 00:39:46;;;;;;;9.50;6.95;;;;;;;;;;4978375;28;25067;-72
2023/09/27 00:42:12;;;;;;;10.30;7.30;;;;;;;;;;4985287;28;24858;-71
2023/09/27 00:44:39;;;;;;;11.77;8.38;;;;;;;;;;4986931;28;25059;-73
2023/09/27 00:47:06;;;;;;;11.95;8.52;;;;;;;;;;4967662;28;25068;-73
2023/09/27 00:49:32;;;;;;;13.13;8.48;;;;;;;;;;4986721;28;25069;-72
2023/09/27 00:51:59;;;;;;;11.25;7.82;;;;;;;;;;4984971;28;25077;-74
2023/09/27 00:54:25;;;;;;;14.10;9.30;;;;;;;;;;4966373;28;25100;-70
2023/09/27 00:56:52;;;;;;;10.93;8.45;;;;;;;;;;4977382;28;25129;-71
2023/09/27 00:59:18;;;;;;;12.57;9.25;;;;;;;;;;5002684;28;25053;-74
2023/09/27 01:01:45;;;;;;;14.90;9.93;;;;;;;;;;4990625;28;25067;-73
2023/09/27 01:04:12;;;;;;;12.43;9.43;;;;;;;;;;4986300;28;25105;-71
2023/09/27 01:06:38;;;;;;;13.07;9.48;;;;;;;;;;4978392;28;25069;-74
2023/09/27 01:09:04;;;;;;;16.25;10.25;;;;;;;;;;4990297;28;25135;-71
2023/09/27 01:11:30;;;;;;;12.55;9.88;;;;;;;;;;4989661;28;25062;-70
2023/09/27 01:13:56;;;;;;;12.38;9.38;;;;;;;;;;4983277;28;25061;-73
2023/09/27 01:16:23;;;;;;;11.88;9.15;;;;;;;;;;4994744;28;25134;-72
2023/09/27 01:18:48;;;;;;;14.27;8.63;;;;;;;;;;4987250;28;25123;-73
2023/09/27 01:21:19;;;;;;;16.25;9.20;;;;;;;;;;4985611;28;25076;-71
2023/09/27 01:23:47;;;;;;;15.05;9.63;;;;;;;;;;4987296;28;25091;-74
2023/09/27 01:26:16;;;;;;;13.05;9.07;;;;;;;;;;4990966;28;25066;-72
2023/09/27 01:28:42;;;;;;;11.45;8.18;;;;;;;;;;4992533;28;25166;-71
2023/09/27 01:31:08;;;;;;;10.73;8.40;;;;;;;;;;4971855;28;25055;-72
2023/09/27 01:33:34;;;;;;;15.45;9.55;;;;;;;;;;4987719;28;25097;-70
2023/09/27 01:36:02;;;;;;;10.98;8.50;;;;;;;;;;4970383;28;25073;-72
2023/09/27 01:38:29;;;;;;;14.68;8.93;;;;;;;;;;4991776;28;25134;-73
2023/09/27 01:40:55;;;;;;;11.45;8.45;;;;;;;;;;4995370;28;25078;-72
2023/09/27 01:43:21;;;;;;;14.00;9.45;;;;;;;;;;4987314;28;25083;-72
2023/09/27 01:45:47;;;;;;;11.75;8.40;;;;;;;;;;4992262;28;25100;-71
2023/09/27 01:48:13;;;;;;;13.07;9.63;;;;;;;;;;4981846;28;25083;-72
2023/09/27 01:50:39;;;;;;;13.32;9.70;;;;;;;;;;4983687;28;25115;-70
2023/09/27 01:53:05;;;;;;;14.50;9.80;;;;;;;;;;4978751;28;25144;-74
2023/09/27 01:55:31;;;;;;;10.13;9.00;;;;;;;;;;4991621;28;25068;-72
2023/09/27 01:57:58;;;;;;;17.73;8.80;;;;;;;;;;4989605;28;25080;-71
2023/09/27 02:00:24;;;;;;;10.35;9.02;;;;;;;;;;4989067;28;25055;-71
2023/09/27 02:02:57;;;;;;;11.63;9.32;;;;;;;;;;4982174;28;25070;-71
2023/09/27 02:05:25;;;;;;;13.30;8.65;;;;;;;;;;4986617;28;25069;-71
2023/09/27 02:07:51;;;;;;;11.13;8.70;;;;;;;;;;4989946;28;25075;-72
2023/09/27 02:10:17;;;;;;;13.18;9.52;;;;;;;;;;4988461;28;25067;-72
2023/09/27 02:12:43;;;;;;;11.55;8.63;;;;;;;;;;4967905;28;25061;-72
2023/09/27 02:15:10;;;;;;;11.70;9.35;;;;;;;;;;4990189;28;25096;-74
2023/09/27 02:17:37;;;;;;;12.73;9.60;;;;;;;;;;4985550;28;25160;-72
2023/09/27 02:20:07;;;;;;;12.68;9.05;;;;;;;;;;4979827;28;25106;-73
2023/09/27 02:22:33;;;;;;;13.70;10.13;;;;;;;;;;4984041;28;25074;-72
2023/09/27 02:24:59;;;;;;;10.38;9.07;;;;;;;;;;4984599;28;25148;-73
2023/09/27 02:27:25;;;;;;;14.65;10.48;;;;;;;;;;4979976;28;25084;-74
2023/09/27 02:29:51;;;;;;;14.85;11.07;;;;;;;;;;4981672;28;25074;-72
2023/09/27 02:32:18;;;;;;;15.82;11.10;;;;;;;;;;4988165;28;25072;-73
2023/09/27 02:34:44;;;;;;;13.18;10.85;;;;;;;;;;4988928;28;25056;-74
2023/09/27 02:37:10;;;;;;;15.85;10.25;;;;;;;;;;4983330;28;25342;-73
2023/09/27 02:39:36;;;;;;;16.25;10.85;;;;;;;;;;4986569;28;25082;-73
2023/09/27 02:42:03;;;;;;;16.23;10.27;;;;;;;;;;4983115;28;25083;-73
2023/09/27 02:44:29;;;;;;;14.45;11.07;;;;;;;;;;4987890;28;25075;-72
2023/09/27 02:46:55;;;;;;;11.90;9.98;;;;;;;;;;4989493;28;25060;-71
2023/09/27 02:49:21;;;;;;;12.23;9.70;;;;;;;;;;4978989;28;25130;-72
2023/09/27 02:51:47;;;;;;;15.18;10.80;;;;;;;;;;4988051;28;25124;-76
2023/09/27 02:54:16;;;;;;;15.60;10.63;;;;;;;;;;4993768;28;25106;-73
2023/09/27 02:56:45;;;;;;;11.27;9.45;;;;;;;;;;4987525;28;25066;-74
2023/09/27 02:59:11;;;;;;;14.27;9.75;;;;;;;;;;4992511;28;25049;-73
2023/09/27 03:01:40;;;;;;;13.90;10.23;;;;;;;;;;4971821;28;25140;-72
2023/09/27 03:04:06;;;;;;;17.65;10.90;;;;;;;;;;4987740;28;25072;-71
2023/09/27 03:06:33;;;;;;;13.75;10.50;;;;;;;;;;4971208;28;25068;-72
2023/09/27 03:08:59;;;;;;;15.75;10.20;;;;;;;;;;4995167;28;25075;-74
2023/09/27 03:11:25;;;;;;;15.70;11.20;;;;;;;;;;4990047;28;25059;-73
2023/09/27 03:13:51;;;;;;;18.98;10.63;;;;;;;;;;4991203;28;25062;-72
2023/09/27 03:16:17;;;;;;;13.85;10.00;;;;;;;;;;4986322;28;25060;-73
2023/09/27 03:18:43;;;;;;;12.32;9.52;;;;;;;;;;4983023;28;25091;-72
2023/09/27 03:21:09;;;;;;;13.90;10.55;;;;;;;;;;4979148;28;25071;-71
2023/09/27 03:23:35;;;;;;;13.35;10.35;;;;;;;;;;4990292;28;25073;-73
2023/09/27 03:26:03;;;;;;;15.98;10.20;;;;;;;;;;4986717;28;25077;-73
2023/09/27 03:28:29;;;;;;;12.88;10.48;;;;;;;;;;4990822;28;25061;-74
2023/09/27 03:30:55;;;;;;;14.85;10.57;;;;;;;;;;4983167;28;25046;-72
2023/09/27 03:33:21;;;;;;;15.75;11.43;;;;;;;;;;4989992;28;25085;-73
2023/09/27 03:35:47;;;;;;;20.90;11.55;;;;;;;;;;4987494;28;25063;-73
2023/09/27 03:38:13;;;;;;;14.30;11.38;;;;;;;;;;4984702;28;25053;-75
2023/09/27 03:40:42;;;;;;;14.68;10.40;;;;;;;;;;4999806;28;25105;-71
2023/09/27 03:43:08;;;;;;;15.77;10.15;;;;;;;;;;5007790;28;25065;-71
2023/09/27 03:45:37;;;;;;;19.85;10.60;;;;;;;;;;5014396;28;25094;-73
2023/09/27 03:48:04;;;;;;;16.67;11.57;;;;;;;;;;5008151;28;25079;-74
2023/09/27 03:50:30;;;;;;;12.85;10.32;;;;;;;;;;5005260;28;25062;-73
2023/09/27 03:52:57;;;;;;;14.07;10.88;;;;;;;;;;4993287;28;25149;-72
2023/09/27 03:55:23;;;;;;;17.70;12.25;;;;;;;;;;5005289;28;25069;-71
2023/09/27 03:57:49;;;;;;;13.85;11.25;;;;;;;;;;5010177;28;25072;-71
2023/09/27 04:00:17;;;;;;;14.43;10.63;;;;;;;;;;4996541;28;25123;-73
2023/09/27 04:02:43;;;;;;;14.75;11.20;;;;;;;;;;4993557;28;25086;-73
2023/09/27 04:05:10;;;;;;;16.27;11.68;;;;;;;;;;4993687;28;25060;-72
2023/09/27 04:07:36;;;;;;;12.25;10.32;;;;;;;;;;4995173;28;25050;-69
2023/09/27 04:10:05;;;;;;;13.50;10.52;;;;;;;;;;4987521;28;25075;-72
2023/09/27 04:12:31;;;;;;;16.83;12.57;;;;;;;;;;4991540;28;25132;-72
2023/09/27 04:14:57;;;;;;;15.90;11.63;;;;;;;;;;4969122;28;25060;-74
2023/09/27 04:17:23;;;;;;;16.20;10.70;;;;;;;;;;4983899;28;25050;-73
2023/09/27 04:19:53;;;;;;;13.85;11.52;;;;;;;;;;4985033;28;25090;-75
2023/09/27 04:22:19;;;;;;;13.93;11.70;;;;;;;;;;4990747;28;24803;-74
2023/09/27 04:24:45;;;;;;;15.63;10.90;;;;;;;;;;4981370;28;25064;-71
2023/09/27 04:27:12;;;;;;;16.55;12.52;;;;;;;;;;4987466;28;25107;-71
2023/09/27 04:29:38;;;;;;;15.23;12.10;;;;;;;;;;4978493;28;25056;-72
2023/09/27 04:32:04;;;;;;;16.35;11.60;;;;;;;;;;4972476;28;25059;-71
2023/09/27 04:34:30;;;;;;;16.75;12.45;;;;;;;;;;4981449;28;25073;-73
2023/09/27 04:36:56;;;;;;;18.25;12.32;;;;;;;;;;4989463;28;25098;-72
2023/09/27 04:39:27;;;;;;;14.98;12.73;;;;;;;;;;4992139;28;25070;-74
2023/09/27 04:41:53;;;;;;;15.07;12.18;;;;;;;;;;4985697;28;25066;-73
2023/09/27 04:44:19;;;;;;;16.00;12.95;;;;;;;;;;4990700;28;25073;-72
2023/09/27 04:46:45;;;;;;;17.17;13.75;;;;;;;;;;4988855;28;25083;-71
2023/09/27 04:49:11;;;;;;;19.67;14.30;;;;;;;;;;4990749;28;25058;-71
2023/09/27 04:51:37;;;;;;;17.58;14.55;;;;;;;;;;5008036;28;25058;-71
2023/09/27 04:54:03;;;;;;;19.67;14.60;;;;;;;;;;4980634;28;25059;-71
2023/09/27 04:56:30;;;;;;;19.63;14.45;;;;;;;;;;4987827;28;25061;-74
2023/09/27 04:59:01;;;;;;;22.10;15.35;;;;;;;;;;4967997;28;24882;-73
2023/09/27 05:01:28;;;;;;;22.43;13.63;;;;;;;;;;4977029;28;25061;-72
2023/09/27 05:03:54;;;;;;;19.38;15.27;;;;;;;;;;4983502;28;25067;-72
2023/09/27 05:06:20;;;;;;;18.42;14.13;;;;;;;;;;4984624;28;25068;-71
2023/09/27 05:08:46;;;;;;;21.85;15.93;;;;;;;;;;4973942;28;25063;-70
2023/09/27 05:11:12;;;;;;;18.20;15.18;;;;;;;;;;4984010;28;25104;-72
2023/09/27 05:13:38;;;;;;;20.13;14.98;;;;;;;;;;4986257;28;25110;-71
2023/09/27 05:16:04;;;;;;;19.00;14.93;;;;;;;;;;4977820;28;25161;-71
2023/09/27 05:18:30;;;;;;;22.70;15.65;;;;;;;;;;4981410;28;25077;-72
2023/09/27 05:20:56;;;;;;;20.35;14.70;;;;;;;;;;4972300;28;25097;-72
2023/09/27 05:23:22;;;;;;;21.25;15.23;;;;;;;;;;4984870;28;25089;-73
2023/09/27 05:25:48;;;;;;;17.30;14.65;;;;;;;;;;4986529;28;25130;-72
2023/09/27 05:28:14;;;;;;;20.92;15.70;;;;;;;;;;4982282;28;25136;-74
2023/09/27 05:30:42;;;;;;;19.98;16.02;;;;;;;;;;4966928;28;25063;-73
2023/09/27 05:33:08;;;;;;;21.63;15.15;;;;;;;;;;4984306;28;25084;-73
2023/09/27 05:35:34;;;;;;;18.65;14.32;;;;;;;;;;4983191;28;25057;-72
2023/09/27 05:38:00;;;;;;;22.70;14.95;;;;;;;;;;4982471;28;25128;-73
2023/09/27 05:40:26;;;;;;;16.08;13.90;;;;;;;;;;4988579;28;25068;-70
2023/09/27 05:42:52;;;;;;;19.92;15.68;;;;;;;;;;4991666;28;25131;-72
2023/09/27 05:45:18;;;;;;;22.38;15.93;;;;;;;;;;4990224;28;25074;-73
2023/09/27 05:47:44;;;;;;;23.65;15.18;;;;;;;;;;4981179;28;25070;-71
2023/09/27 05:50:14;;;;;;;20.05;15.75;;;;;;;;;;4980709;28;25063;-72
2023/09/27 05:52:43;;;;;;;22.30;15.27;;;;;;;;;;4970757;28;25151;-71
2023/09/27 05:55:09;;;;;;;19.10;15.98;;;;;;;;;;4991797;28;25067;-72
2023/09/27 05:57:36;;;;;;;21.33;16.15;;;;;;;;;;4995504;28;25042;-72
2023/09/27 06:00:12;;;;;;;21.08;15.27;;;;;;;;;;4977937;28;25067;-73
2023/09/27 06:02:38;;;;;;;24.02;16.13;;;;;;;;;;4976954;28;25173;-72
2023/09/27 06:05:06;;;;;;;19.58;15.68;;;;;;;;;;4974634;28;25099;-73
2023/09/27 06:07:33;;;;;;;21.98;15.77;;;;;;;;;;4981470;28;25164;-72
2023/09/27 06:09:59;;;;;;;21.45;15.35;;;;;;;;;;4989013;28;25071;-72
2023/09/27 06:12:25;;;;;;;19.73;14.68;;;;;;;;;;4963451;28;25069;-73
2023/09/27 06:14:51;;;;;;;23.20;15.98;;;;;;;;;;4985827;28;25061;-72
2023/09/27 06:17:17;;;;;;;19.67;15.30;;;;;;;;;;4982536;28;25129;-72
2023/09/27 06:19:43;;;;;;;21.13;15.57;;;;;;;;;;4980340;28;25075;-72
2023/09/27 06:22:13;;;;;;;23.40;16.02;;;;;;;;;;4968357;28;25069;-72
2023/09/27 06:24:39;;;;;;;19.02;15.77;;;;;;;;;;4978303;28;25051;-71
2023/09/27 06:27:06;;;;;;;22.67;15.73;;;;;;;;;;4980588;28;25083;-73
2023/09/27 06:29:33;;;;;;;26.85;17.48;;;;;;;;;;4993651;28;25102;-71
2023/09/27 06:31:59;;;;;;;21.67;15.57;;;;;;;;;;4986732;28;25060;-71
2023/09/27 06:34:26;;;;;;;21.83;15.32;;;;;;;;;;4963885;28;25072;-72
2023/09/27 06:36:56;;;;;;;22.08;16.98;;;;;;;;;;4980323;28;25101;-72
2023/09/27 06:39:24;;;;;;;22.45;15.82;;;;;;;;;;4988428;28;25165;-72
2023/09/27 06:41:51;;;;;;;21.00;15.95;;;;;;;;;;4991306;28;25081;-72
2023/09/27 06:44:18;;;;;;;20.90;15.80;;;;;;;;;;4979261;28;25074;-74
2023/09/27 06:46:44;;;;;;;21.17;15.85;;;;;;;;;;4976924;28;25073;-72
2023/09/27 06:49:12;;;;;;;23.33;16.17;;;;;;;;;;4981662;28;25154;-72
2023/09/27 06:51:38;;;;;;;18.60;15.10;;;;;;;;;;4976468;28;25084;-72
2023/09/27 06:54:05;;;;;;;18.63;14.90;;;;;;;;;;4984310;28;25074;-72
2023/09/27 06:56:31;;;;;;;19.90;15.23;;;;;;;;;;4972823;28;25079;-74
2023/09/27 06:58:57;;;;;;;23.55;16.50;;;;;;;;;;4970468;28;25044;-73
2023/09/27 07:01:24;;;;;;;19.75;16.25;;;;;;;;;;4980987;28;25072;-71
2023/09/27 07:03:50;;;;;;;18.83;14.48;;;;;;;;;;4978151;28;25074;-72
2023/09/27 07:06:16;;;;;;;24.20;15.38;;;;;;;;;;4986126;28;25074;-73
2023/09/27 07:08:46;;;;;;;22.40;15.90;;;;;;;;;;4973213;28;25070;-73
2023/09/27 07:11:13;;;;;;;22.20;16.77;;;;;;;;;;4973541;28;25098;-74
2023/09/27 07:13:40;;;;;;;24.27;15.68;;;;;;;;;;4982020;28;25052;-72
2023/09/27 07:16:20;;;;;;;18.20;15.23;;;;;;;;;;4967500;28;25068;-73
2023/09/27 07:18:47;;;;;;;20.77;15.80;;;;;;;;;;4972977;28;25142;-72
2023/09/27 07:21:13;;;;;;;18.85;14.50;;;;;;;;;;4976100;28;25157;-75
2023/09/27 07:23:39;;;;;;;23.23;15.90;;;;;;;;;;4980045;28;25080;-72
2023/09/27 07:26:06;;;;;;;22.42;16.10;;;;;;;;;;4974734;28;25061;-74
2023/09/27 07:28:33;;;;;;;18.33;14.75;;;;;;;;;;4967062;28;25079;-73
2023/09/27 07:30:59;;;;;;;23.10;14.70;;;;;;;;;;4981257;28;25096;-73
2023/09/27 07:33:25;;;;;;;27.02;15.93;;;;;;;;;;4979873;28;25067;-72
2023/09/27 07:35:52;;;;;;;24.65;17.65;;;;;;;;;;4993612;28;25054;-72
2023/09/27 07:38:18;;;;;;;21.35;15.95;;;;;;;;;;4984102;28;25119;-75
2023/09/27 07:40:48;;;;;;;22.25;15.82;;;;;;;;;;4980354;28;25076;-73
2023/09/27 07:43:15;;;;;;;31.02;17.40;;;;;;;;;;4977865;28;25148;-73
2023/09/27 07:45:43;;;;;;;24.38;16.23;;;;;;;;;;4978274;28;25057;-73
2023/09/27 07:48:10;;;;;;;31.15;17.25;;;;;;;;;;4977182;28;25069;-72
2023/09/27 07:50:38;;;;;;;24.08;16.58;;;;;;;;;;4961423;28;25135;-74
2023/09/27 07:53:08;;;;;;;28.88;19.58;;;;;;;;;;4979795;28;25078;-70
2023/09/27 07:55:43;;;;;;;28.05;16.48;;;;;;;;;;4983181;28;25127;-72
2023/09/27 07:58:09;;;;;;;29.85;18.70;;;;;;;;;;4964726;28;25087;-71
2023/09/27 08:00:35;;;;;;;28.58;17.95;;;;;;;;;;4975746;28;25094;-71
2023/09/27 08:03:03;;;;;;;25.23;17.92;;;;;;;;;;4977932;28;25067;-71
2023/09/27 08:05:29;;;;;;;31.38;18.35;;;;;;;;;;4992339;28;25064;-72
2023/09/27 08:07:55;;;;;;;24.70;17.30;;;;;;;;;;4980971;28;25074;-70
2023/09/27 08:10:22;;;;;;;26.67;18.35;;;;;;;;;;4996533;28;25118;-71
2023/09/27 08:12:48;;;;;;;27.50;16.88;;;;;;;;;;4993494;28;25096;-74
2023/09/27 08:15:14;;;;;;;23.77;17.00;;;;;;;;;;4976255;28;25092;-72
2023/09/27 08:17:41;;;;;;;25.13;17.45;;;;;;;;;;4985195;28;25053;-72
2023/09/27 08:20:09;;;;;;;27.40;18.08;;;;;;;;;;4983521;28;25059;-71
2023/09/27 08:22:36;;;;;;;25.83;15.95;;;;;;;;;;4984422;28;25064;-71
2023/09/27 08:25:04;;;;;;;26.38;17.73;;;;;;;;;;4991510;28;25171;-72
2023/09/27 08:27:31;;;;;;;26.80;17.08;;;;;;;;;;4979393;28;25127;-69
2023/09/27 08:29:57;;;;;;;24.77;17.27;;;;;;;;;;4987968;28;25047;-71
2023/09/27 08:32:23;;;;;;;25.40;17.15;;;;;;;;;;4983806;28;25068;-71
2023/09/27 08:34:49;;;;;;;25.45;17.13;;;;;;;;;;4954756;28;25114;-72
2023/09/27 08:37:15;;;;;;;28.73;17.58;;;;;;;;;;4979715;28;25134;-73
2023/09/27 08:39:42;;;;;;;21.65;16.50;;;;;;;;;;4981418;28;25087;-73
2023/09/27 08:42:08;;;;;;;25.67;16.67;;;;;;;;;;4981188;28;25088;-73
2023/09/27 08:44:35;;;;;;;24.52;17.02;;;;;;;;;;4975919;28;25137;-72
2023/09/27 08:47:02;;;;;;;27.13;17.40;;;;;;;;;;4982987;28;25078;-71
2023/09/27 08:49:28;;;;;;;25.83;17.98;;;;;;;;;;4978599;28;25091;-72
2023/09/27 08:51:54;;;;;;;26.63;17.05;;;;;;;;;;4972566;28;25120;-74
2023/09/27 08:54:22;;;;;;;26.88;17.52;;;;;;;;;;4984967;28;25091;-74
2023/09/27 08:56:50;;;;;;;26.83;16.42;;;;;;;;;;4975564;28;25067;-71
2023/09/27 08:59:18;;;;;;;24.67;16.40;;;;;;;;;;4968528;28;25549;-70
2023/09/27 09:01:44;;;;;;;23.05;15.55;;;;;;;;;;4968279;28;25067;-70
2023/09/27 09:04:11;;;;;;;24.88;15.60;;;;;;;;;;4972289;28;25063;-72
2023/09/27 09:06:37;;;;;;;21.30;14.95;;;;;;;;;;4986306;28;25080;-70
2023/09/27 09:09:12;;;;;;;24.00;16.75;;;;;;;;;;4992927;28;25139;-73
2023/09/27 09:11:48;;;;;;;24.13;16.65;;;;;;;;;;4980401;28;25099;-72
2023/09/27 09:14:21;;;;;;;26.40;16.75;;;;;;;;;;4976014;28;25053;-72
2023/09/27 09:16:51;;;;;;;24.05;15.60;;;;;;;;;;4988919;28;25154;-72
2023/09/27 09:19:24;;;;;;;28.88;16.92;;;;;;;;;;4997702;28;25060;-72
2023/09/27 09:21:57;;;;;;;26.65;16.70;;;;;;;;;;4986468;28;25066;-70
2023/09/27 09:24:23;;;;;;;24.67;16.67;;;;;;;;;;4964798;28;25130;-70
2023/09/27 09:27:03;;;;;;;29.23;17.77;;;;;;;;;;4986167;28;25148;-74
2023/09/27 09:29:47;;;;;;;25.20;17.10;;;;;;;;;;4981940;28;25135;-72
2023/09/27 09:32:13;;;;;;;30.42;17.70;;;;;;;;;;4979671;28;25064;-72
2023/09/27 09:34:43;;;;;;;32.30;17.25;;;;;;;;;;4974877;28;25075;-71
2023/09/27 09:37:19;;;;;;;32.47;18.33;;;;;;;;;;4976425;28;25048;-71
2023/09/27 09:39:46;;;;;;;28.55;16.55;;;;;;;;;;4984039;28;25089;-70
2023/09/27 09:42:13;;;;;;;25.67;15.95;;;;;;;;;;4978406;28;25049;-71
2023/09/27 09:44:39;;;;;;;27.77;16.95;;;;;;;;;;4980638;28;25060;-71
2023/09/27 09:47:12;;;;;;;23.15;14.50;;;;;;;;;;4984603;28;25072;-70
2023/09/27 09:49:42;;;;;;;21.55;14.52;;;;;;;;;;4992675;28;25063;-71
2023/09/27 09:52:11;;;;;;;20.60;13.52;;;;;;;;;;4984030;28;25145;-71
2023/09/27 09:54:47;;;;;;;21.25;13.15;;;;;;;;;;4983054;28;25077;-70
2023/09/27 09:57:19;;;;;;;23.63;11.52;;;;;;;;;;4986214;28;25133;-71
2023/09/27 09:59:45;;;;;;;;;;;;;;;;;;4985837;28;25093;-72
2023/09/27 10:02:23;;;;;;;20.73;12.88;;;;;;;;;;5010020;28;24071;-73
2023/09/27 10:04:55;;;;;;;17.70;10.80;;;;;;;;;;4984872;28;25071;-72
2023/09/27 10:07:21;;;;;;;19.90;11.55;;;;;;;;;;4996288;28;25070;-71
2023/09/27 10:09:48;;;;;;;16.77;11.23;;;;;;;;;;5001657;28;25073;-72
2023/09/27 10:12:14;;;;;;;18.88;11.73;;;;;;;;;;4996567;28;25081;-70
2023/09/27 10:14:41;;;;;;;18.00;11.88;;;;;;;;;;4986160;28;25063;-75
2023/09/27 10:17:20;;;;;;;17.17;11.18;;;;;;;;;;4974109;28;25089;-73
2023/09/27 10:20:11;;;;;;;17.98;11.75;;;;;;;;;;4984888;28;25085;-73
2023/09/27 10:22:37;;;;;;;16.45;10.73;;;;;;;;;;4986556;28;25054;-72
2023/09/27 10:25:04;;;;;;;14.73;10.77;;;;;;;;;;4980356;28;25069;-72
2023/09/27 10:28:01;;;;;;;22.58;12.68;;;;;;;;;;4988823;28;25057;-73
2023/09/27 10:30:40;;;;;;;14.68;10.38;;;;;;;;;;4983031;28;25094;-72
2023/09/27 10:33:15;;;;;;;17.25;11.05;;;;;;;;;;4993117;28;25111;-72
2023/09/27 10:36:07;;;;;;;16.50;11.73;;;;;;;;;;4983890;28;25147;-70
2023/09/27 10:38:43;;;;;;;21.80;10.85;;;;;;;;;;4985498;28;25095;-71
2023/09/27 10:41:27;;;;;;;15.43;9.77;;;;;;;;;;4967112;28;25079;-73
2023/09/27 10:43:54;;;;;;;14.27;9.80;;;;;;;;;;4985727;28;25062;-72
2023/09/27 10:46:20;;;;;;;18.00;9.32;;;;;;;;;;4979084;28;25072;-72
2023/09/27 10:48:58;;;;;;;15.60;9.15;;;;;;;;;;4977367;28;25071;-69
2023/09/27 10:51:26;;;;;;;14.88;9.65;;;;;;;;;;4986016;28;25071;-72
2023/09/27 10:53:53;;;;;;;15.02;8.77;;;;;;;;;;4981588;28;25115;-70
2023/09/27 10:56:19;;;;;;;13.57;8.00;;;;;;;;;;4983090;28;25085;-74
2023/09/27 10:58:45;;;;;;;16.00;9.70;;;;;;;;;;4983050;28;25046;-74
2023/09/27 11:01:11;;;;;;;11.82;9.20;;;;;;;;;;4985235;28;25097;-73
2023/09/27 11:03:40;;;;;;;12.98;9.10;;;;;;;;;;4972898;28;25149;-74
2023/09/27 11:06:13;;;;;;;13.65;9.45;;;;;;;;;;4967543;28;25086;-72
2023/09/27 11:08:43;;;;;;;15.38;9.93;;;;;;;;;;4988925;28;25095;-72
2023/09/27 11:11:11;;;;;;;15.43;9.85;;;;;;;;;;4991399;28;25084;-73
2023/09/27 11:13:46;;;;;;;15.68;10.18;;;;;;;;;;4991278;28;25064;-72
2023/09/27 11:16:18;;;;;;;19.48;10.38;;;;;;;;;;4986741;28;25088;-73
2023/09/27 11:18:56;;;;;;;14.48;10.05;;;;;;;;;;4981264;28;25161;-71
2023/09/27 11:21:28;;;;;;;13.25;9.82;;;;;;;;;;4985193;28;25089;-73
2023/09/27 11:24:03;;;;;;;13.80;10.00;;;;;;;;;;4988209;28;25052;-71
2023/09/27 11:26:31;;;;;;;14.48;9.77;;;;;;;;;;4965705;28;25063;-71
2023/09/27 11:29:04;;;;;;;15.10;10.77;;;;;;;;;;4984638;28;25062;-74
2023/09/27 11:31:37;;;;;;;12.73;9.23;;;;;;;;;;4983944;28;25096;-72
2023/09/27 11:34:30;;;;;;;13.07;8.00;;;;;;;;;;4984713;28;25066;-73
2023/09/27 11:37:02;;;;;;;10.82;8.27;;;;;;;;;;4984940;28;25131;-69
2023/09/27 11:39:51;;;;;;;11.85;8.15;;;;;;;;;;4986078;28;25066;-71
2023/09/27 11:42:21;;;;;;;12.80;7.20;;;;;;;;;;4972258;28;25080;-73
2023/09/27 11:45:00;;;;;;;8.18;6.55;;;;;;;;;;4991780;28;25174;-75
2023/09/27 11:47:26;;;;;;;9.35;6.35;;;;;;;;;;4985983;28;25056;-72
2023/09/27 11:49:52;;;;;;;8.48;5.93;;;;;;;;;;4986652;28;25116;-72
2023/09/27 11:52:18;;;;;;;9.68;6.20;;;;;;;;;;4971149;28;25064;-73
2023/09/27 11:54:45;;;;;;;11.70;7.03;;;;;;;;;;4987482;28;25075;-71
2023/09/27 11:57:11;;;;;;;8.15;5.68;;;;;;;;;;4977415;28;25082;-72
2023/09/27 11:59:37;;;;;;;11.23;6.72;;;;;;;;;;4973999;28;25081;-73
2023/09/27 12:02:03;;;;;;;11.15;6.43;;;;;;;;;;4984121;28;25059;-73
2023/09/27 12:04:29;;;;;;;6.15;5.05;;;;;;;;;;4990346;28;25118;-73
2023/09/27 12:06:55;;;;;;;6.10;4.90;;;;;;;;;;4989121;28;25075;-75
2023/09/27 12:09:21;;;;;;;6.93;4.93;;;;;;;;;;4982699;28;25082;-71
2023/09/27 12:11:47;;;;;;;15.40;4.80;;;;;;;;;;4976350;28;25140;-74
2023/09/27 12:14:13;;;;;;;6.82;4.25;;;;;;;;;;4991938;28;25067;-74
2023/09/27 12:16:41;;;;;;;9.88;4.68;;;;;;;;;;4995543;28;25071;-73
2023/09/27 12:19:07;;;;;;;10.15;4.65;;;;;;;;;;4968533;28;25097;-73
2023/09/27 12:21:34;;;;;;;5.60;3.58;;;;;;;;;;4990818;28;25077;-73
2023/09/27 12:24:02;;;;;;;4.90;3.35;;;;;;;;;;4989877;28;25075;-71
2023/09/27 12:26:28;;;;;;;6.97;3.90;;;;;;;;;;4988173;28;25069;-70
2023/09/27 12:28:54;;;;;;;8.20;3.58;;;;;;;;;;4968426;28;25070;-75
2023/09/27 12:31:21;;;;;;;5.07;3.25;;;;;;;;;;4968292;28;25146;-74
2023/09/27 12:33:47;;;;;;;5.90;3.00;;;;;;;;;;4991661;28;25058;-72
2023/09/27 12:36:13;;;;;;;6.45;3.53;;;;;;;;;;4979147;28;25046;-72
2023/09/27 12:38:40;;;;;;;5.65;3.17;;;;;;;;;;4977575;28;25087;-74
2023/09/27 12:41:08;;;;;;;9.25;3.20;;;;;;;;;;4993078;28;25050;-72
2023/09/27 12:43:35;;;;;;;7.10;3.22;;;;;;;;;;4988250;28;25139;-73
2023/09/27 12:46:05;;;;;;;4.97;3.00;;;;;;;;;;4995434;28;25070;-72
2023/09/27 12:48:31;;;;;;;7.30;3.30;;;;;;;;;;4990369;28;25085;-75
2023/09/27 12:50:57;;;;;;;7.07;3.83;;;;;;;;;;4986914;28;25083;-73
2023/09/27 12:53:23;;;;;;;5.65;3.40;;;;;;;;;;4984019;28;25052;-73
2023/09/27 12:55:49;;;;;;;6.45;3.60;;;;;;;;;;4984461;28;25078;-72
2023/09/27 12:58:15;;;;;;;7.07;3.80;;;;;;;;;;4985290;28;25088;-73
2023/09/27 13:00:42;;;;;;;7.28;3.50;;;;;;;;;;4979367;28;25087;-73
2023/09/27 13:03:08;;;;;;;4.35;2.78;;;;;;;;;;4979543;28;25058;-72
2023/09/27 13:05:35;;;;;;;7.88;3.42;;;;;;;;;;4989821;28;25099;-74
2023/09/27 13:08:02;;;;;;;7.63;4.03;;;;;;;;;;4969345;28;25061;-73
2023/09/27 13:10:28;;;;;;;7.90;3.88;;;;;;;;;;4988953;28;25094;-73
2023/09/27 13:12:54;;;;;;;12.13;3.55;;;;;;;;;;4984918;28;25073;-73
2023/09/27 13:15:20;;;;;;;4.47;3.33;;;;;;;;;;4993566;28;25081;-72
2023/09/27 13:17:46;;;;;;;4.82;3.17;;;;;;;;;;4984897;28;25094;-72
2023/09/27 13:20:12;;;;;;;9.40;3.25;;;;;;;;;;4988143;28;25061;-72
2023/09/27 13:22:38;;;;;;;4.88;3.40;;;;;;;;;;4978700;28;25057;-72
2023/09/27 13:25:05;;;;;;;6.47;3.30;;;;;;;;;;4989854;28;25067;-73
2023/09/27 13:27:31;;;;;;;7.20;3.00;;;;;;;;;;4986524;28;25081;-70
2023/09/27 13:29:57;;;;;;;8.93;3.58;;;;;;;;;;4965281;28;25140;-72
2023/09/27 13:32:23;;;;;;;4.20;2.40;;;;;;;;;;4984745;28;25079;-72
2023/09/27 13:34:49;;;;;;;5.20;3.15;;;;;;;;;;4986881;28;25083;-72
2023/09/27 13:37:19;;;;;;;4.63;2.97;;;;;;;;;;4984748;28;25137;-71
2023/09/27 13:39:45;;;;;;;4.70;3.03;;;;;;;;;;4984995;28;25060;-72
2023/09/27 13:42:11;;;;;;;5.15;2.83;;;;;;;;;;4965427;28;25064;-74
2023/09/27 13:44:37;;;;;;;3.53;2.63;;;;;;;;;;4987562;28;25076;-72
2023/09/27 13:47:03;;;;;;;4.65;3.15;;;;;;;;;;4982867;28;25078;-71
2023/09/27 13:49:30;;;;;;;5.22;3.42;;;;;;;;;;4984962;28;25130;-73
2023/09/27 13:51:56;;;;;;;6.97;3.35;;;;;;;;;;4988231;28;25130;-73
2023/09/27 13:54:22;;;;;;;6.00;2.95;;;;;;;;;;4981194;28;25080;-73
2023/09/27 13:56:49;;;;;;;6.47;3.75;;;;;;;;;;4992752;28;25083;-72
2023/09/27 13:59:15;;;;;;;4.07;3.20;;;;;;;;;;4992737;28;25046;-73
2023/09/27 14:01:41;;;;;;;6.43;3.10;;;;;;;;;;4993598;28;25162;-72
2023/09/27 14:04:08;;;;;;;3.60;2.80;;;;;;;;;;4976071;28;25073;-73
2023/09/27 14:06:34;;;;;;;3.53;2.85;;;;;;;;;;4969756;28;25060;-73
2023/09/27 14:09:01;;;;;;;7.00;3.33;;;;;;;;;;4986916;28;25073;-72
2023/09/27 14:11:28;;;;;;;4.80;3.40;;;;;;;;;;4972237;28;25066;-73
2023/09/27 14:13:54;;;;;;;6.00;3.13;;;;;;;;;;4989787;28;25119;-72
2023/09/27 14:16:20;;;;;;;5.25;3.05;;;;;;;;;;4984554;28;25064;-71
2023/09/27 14:18:46;;;;;;;6.03;4.95;;;;;;;;;;4981702;28;25065;-72
2023/09/27 14:21:13;;;;;;;6.78;3.08;;;;;;;;;;4968748;28;25066;-70
2023/09/27 14:23:41;;;;;;;5.68;2.95;;;;;;;;;;4966240;28;25108;-69
2023/09/27 14:26:08;;;;;;;4.72;3.08;;;;;;;;;;4945906;28;25061;-73
2023/09/27 14:28:34;;;;;;;5.32;2.63;;;;;;;;;;4987952;28;25048;-71